sensor_id;sensor_type;location;lat;lon;timestamp;temperature;humidity
16627;DHT22;8427;52.204;7.202;2023-05-16T00:00:52;10.10;84.40
16627;DHT22;8427;52.204;7.202;2023-05-16T00:03:21;10.00;84.90
16627;DHT22;8427;52.204;7.202;2023-05-16T00:05:50;10.10;85.70
16627;DHT22;8427;52.204;7.202;2023-05-16T00:08:18;10.10;85.20
16627;DHT22;8427;52.204;7.202;2023-05-16T00:10:46;9.90;84.50
16627;DHT22;8427;52.204;7.202;2023-05-16T00:13:14;9.80;84.90
16627;DHT22;8427;52.204;7.202;2023-05-16T00:15:47;9.80;84.80
16627;DHT22;8427;52.204;7.202;2023-05-16T00:18:15;9.80;83.80
16627;DHT22;8427;52.204;7.202;2023-05-16T00:20:43;9.90;84.40
16627;DHT22;8427;52.204;7.202;2023-05-16T00:23:13;9.70;83.60
16627;DHT22;8427;52.204;7.202;2023-05-16T00:25:42;9.70;83.40
16627;DHT22;8427;52.204;7.202;2023-05-16T00:28:11;9.70;83.80
16627;DHT22;8427;52.204;7.202;2023-05-16T00:30:39;9.90;83.90
16627;DHT22;8427;52.204;7.202;2023-05-16T00:33:07;9.90;83.10
16627;DHT22;8427;52.204;7.202;2023-05-16T00:39:04;9.90;83.20
16627;DHT22;8427;52.204;7.202;2023-05-16T00:41:33;10.10;83.30
16627;DHT22;8427;52.204;7.202;2023-05-16T00:44:01;10.10;83.30
16627;DHT22;8427;52.204;7.202;2023-05-16T00:46:29;10.00;82.80
16627;DHT22;8427;52.204;7.202;2023-05-16T00:48:57;10.00;82.90
16627;DHT22;8427;52.204;7.202;2023-05-16T00:51:25;10.10;83.20
16627;DHT22;8427;52.204;7.202;2023-05-16T00:53:54;10.10;82.60
16627;DHT22;8427;52.204;7.202;2023-05-16T00:56:24;10.00;82.80
16627;DHT22;8427;52.204;7.202;2023-05-16T00:58:52;10.20;81.90
16627;DHT22;8427;52.204;7.202;2023-05-16T01:01:22;10.00;81.90
16627;DHT22;8427;52.204;7.202;2023-05-16T01:03:52;10.10;81.90
16627;DHT22;8427;52.204;7.202;2023-05-16T01:06:20;10.10;82.50
16627;DHT22;8427;52.204;7.202;2023-05-16T01:08:48;10.00;81.20
16627;DHT22;8427;52.204;7.202;2023-05-16T01:11:21;10.00;81.70
16627;DHT22;8427;52.204;7.202;2023-05-16T01:14:05;9.90;81.50
16627;DHT22;8427;52.204;7.202;2023-05-16T01:16:43;9.90;81.40
16627;DHT22;8427;52.204;7.202;2023-05-16T01:19:22;9.90;82.10
16627;DHT22;8427;52.204;7.202;2023-05-16T01:22:01;10.10;82.00
16627;DHT22;8427;52.204;7.202;2023-05-16T01:24:33;10.10;81.60
16627;DHT22;8427;52.204;7.202;2023-05-16T01:27:03;10.00;81.70
16627;DHT22;8427;52.204;7.202;2023-05-16T01:29:31;10.00;81.10
16627;DHT22;8427;52.204;7.202;2023-05-16T01:31:59;9.90;81.30
16627;DHT22;8427;52.204;7.202;2023-05-16T01:34:28;10.00;81.10
16627;DHT22;8427;52.204;7.202;2023-05-16T01:40:11;9.80;80.50
16627;DHT22;8427;52.204;7.202;2023-05-16T01:42:46;9.60;80.30
16627;DHT22;8427;52.204;7.202;2023-05-16T01:45:20;9.60;80.90
16627;DHT22;8427;52.204;7.202;2023-05-16T01:47:56;9.60;80.90
16627;DHT22;8427;52.204;7.202;2023-05-16T01:53:47;9.40;80.20
16627;DHT22;8427;52.204;7.202;2023-05-16T01:56:17;9.30;80.70
16627;DHT22;8427;52.204;7.202;2023-05-16T01:58:49;9.30;81.10
16627;DHT22;8427;52.204;7.202;2023-05-16T02:01:18;9.40;80.90
16627;DHT22;8427;52.204;7.202;2023-05-16T02:03:46;9.30;80.80
16627;DHT22;8427;52.204;7.202;2023-05-16T02:06:14;9.10;80.80
16627;DHT22;8427;52.204;7.202;2023-05-16T02:08:42;9.20;80.90
16627;DHT22;8427;52.204;7.202;2023-05-16T02:11:10;9.00;81.20
16627;DHT22;8427;52.204;7.202;2023-05-16T02:13:38;9.00;81.60
16627;DHT22;8427;52.204;7.202;2023-05-16T02:16:09;9.00;81.40
16627;DHT22;8427;52.204;7.202;2023-05-16T02:18:38;8.90;81.50
16627;DHT22;8427;52.204;7.202;2023-05-16T02:21:06;8.80;81.90
16627;DHT22;8427;52.204;7.202;2023-05-16T02:23:34;8.70;82.10
16627;DHT22;8427;52.204;7.202;2023-05-16T02:26:02;8.70;82.40
16627;DHT22;8427;52.204;7.202;2023-05-16T02:28:30;8.60;82.20
16627;DHT22;8427;52.204;7.202;2023-05-16T02:30:58;8.50;82.40
16627;DHT22;8427;52.204;7.202;2023-05-16T02:33:28;8.40;81.80
16627;DHT22;8427;52.204;7.202;2023-05-16T02:35:56;8.50;82.10
16627;DHT22;8427;52.204;7.202;2023-05-16T02:38:24;8.50;82.40
16627;DHT22;8427;52.204;7.202;2023-05-16T02:40:52;8.40;82.40
16627;DHT22;8427;52.204;7.202;2023-05-16T02:43:20;8.40;82.30
16627;DHT22;8427;52.204;7.202;2023-05-16T02:45:48;8.30;82.50
16627;DHT22;8427;52.204;7.202;2023-05-16T02:48:16;8.30;82.90
16627;DHT22;8427;52.204;7.202;2023-05-16T02:50:55;8.30;82.80
16627;DHT22;8427;52.204;7.202;2023-05-16T02:53:22;8.20;82.90
16627;DHT22;8427;52.204;7.202;2023-05-16T02:55:51;8.10;82.90
16627;DHT22;8427;52.204;7.202;2023-05-16T02:58:19;8.20;82.90
16627;DHT22;8427;52.204;7.202;2023-05-16T03:00:47;8.00;83.30
16627;DHT22;8427;52.204;7.202;2023-05-16T03:03:14;8.10;83.50
16627;DHT22;8427;52.204;7.202;2023-05-16T03:05:43;8.10;83.30
16627;DHT22;8427;52.204;7.202;2023-05-16T03:08:13;7.90;83.30
16627;DHT22;8427;52.204;7.202;2023-05-16T03:10:41;7.80;83.60
16627;DHT22;8427;52.204;7.202;2023-05-16T03:13:09;7.60;83.60
16627;DHT22;8427;52.204;7.202;2023-05-16T03:15:36;7.80;84.10
16627;DHT22;8427;52.204;7.202;2023-05-16T03:18:04;7.50;84.10
16627;DHT22;8427;52.204;7.202;2023-05-16T03:20:33;7.70;84.10
16627;DHT22;8427;52.204;7.202;2023-05-16T03:23:01;7.70;84.10
16627;DHT22;8427;52.204;7.202;2023-05-16T03:25:30;7.70;84.10
16627;DHT22;8427;52.204;7.202;2023-05-16T03:27:58;7.60;83.80
16627;DHT22;8427;52.204;7.202;2023-05-16T03:30:27;7.60;83.90
16627;DHT22;8427;52.204;7.202;2023-05-16T03:32:55;7.40;83.90
16627;DHT22;8427;52.204;7.202;2023-05-16T03:35:23;7.20;84.10
16627;DHT22;8427;52.204;7.202;2023-05-16T03:37:51;7.30;84.10
16627;DHT22;8427;52.204;7.202;2023-05-16T03:40:19;7.30;84.40
16627;DHT22;8427;52.204;7.202;2023-05-16T03:42:49;7.40;84.60
16627;DHT22;8427;52.204;7.202;2023-05-16T03:45:17;7.40;84.40
16627;DHT22;8427;52.204;7.202;2023-05-16T03:47:45;7.20;84.30
16627;DHT22;8427;52.204;7.202;2023-05-16T03:50:13;7.20;84.60
16627;DHT22;8427;52.204;7.202;2023-05-16T03:52:42;7.30;84.70
16627;DHT22;8427;52.204;7.202;2023-05-16T03:55:10;7.30;84.70
16627;DHT22;8427;52.204;7.202;2023-05-16T03:57:41;7.30;84.70
16627;DHT22;8427;52.204;7.202;2023-05-16T04:00:11;7.30;84.60
16627;DHT22;8427;52.204;7.202;2023-05-16T04:02:40;7.40;84.80
16627;DHT22;8427;52.204;7.202;2023-05-16T04:05:10;7.20;84.60
16627;DHT22;8427;52.204;7.202;2023-05-16T04:07:39;7.30;84.20
16627;DHT22;8427;52.204;7.202;2023-05-16T04:10:08;7.30;84.40
16627;DHT22;8427;52.204;7.202;2023-05-16T04:12:37;7.30;84.60
16627;DHT22;8427;52.204;7.202;2023-05-16T04:15:05;7.40;84.30
16627;DHT22;8427;52.204;7.202;2023-05-16T04:17:35;7.40;84.10
16627;DHT22;8427;52.204;7.202;2023-05-16T04:20:03;7.40;83.90
16627;DHT22;8427;52.204;7.202;2023-05-16T04:22:32;7.40;83.80
16627;DHT22;8427;52.204;7.202;2023-05-16T04:25:00;7.50;83.50
16627;DHT22;8427;52.204;7.202;2023-05-16T04:27:28;7.50;83.80
16627;DHT22;8427;52.204;7.202;2023-05-16T04:29:57;7.60;83.60
16627;DHT22;8427;52.204;7.202;2023-05-16T04:32:25;7.40;83.30
16627;DHT22;8427;52.204;7.202;2023-05-16T04:34:55;7.40;83.70
16627;DHT22;8427;52.204;7.202;2023-05-16T04:37:23;7.50;83.40
16627;DHT22;8427;52.204;7.202;2023-05-16T04:39:52;7.70;83.60
16627;DHT22;8427;52.204;7.202;2023-05-16T04:42:20;7.70;82.90
16627;DHT22;8427;52.204;7.202;2023-05-16T04:44:49;7.70;83.30
16627;DHT22;8427;52.204;7.202;2023-05-16T04:47:18;7.90;82.30
16627;DHT22;8427;52.204;7.202;2023-05-16T04:49:46;8.00;81.80
16627;DHT22;8427;52.204;7.202;2023-05-16T04:52:16;8.10;82.10
16627;DHT22;8427;52.204;7.202;2023-05-16T04:54:44;8.20;82.00
16627;DHT22;8427;52.204;7.202;2023-05-16T04:57:12;8.30;80.90
16627;DHT22;8427;52.204;7.202;2023-05-16T04:59:39;8.40;81.50
16627;DHT22;8427;52.204;7.202;2023-05-16T05:02:07;8.20;80.80
16627;DHT22;8427;52.204;7.202;2023-05-16T05:04:35;8.40;81.00
16627;DHT22;8427;52.204;7.202;2023-05-16T05:07:04;8.60;80.10
16627;DHT22;8427;52.204;7.202;2023-05-16T05:09:33;8.50;80.00
16627;DHT22;8427;52.204;7.202;2023-05-16T05:12:01;8.60;79.60
16627;DHT22;8427;52.204;7.202;2023-05-16T05:14:29;8.80;79.90
16627;DHT22;8427;52.204;7.202;2023-05-16T05:16:57;8.80;80.40
16627;DHT22;8427;52.204;7.202;2023-05-16T05:19:25;8.90;79.60
16627;DHT22;8427;52.204;7.202;2023-05-16T05:21:53;8.70;79.00
16627;DHT22;8427;52.204;7.202;2023-05-16T05:24:21;8.70;79.10
16627;DHT22;8427;52.204;7.202;2023-05-16T05:26:50;8.80;78.90
16627;DHT22;8427;52.204;7.202;2023-05-16T05:29:18;9.00;79.40
16627;DHT22;8427;52.204;7.202;2023-05-16T05:31:46;8.90;78.80
16627;DHT22;8427;52.204;7.202;2023-05-16T05:34:14;9.00;78.50
16627;DHT22;8427;52.204;7.202;2023-05-16T05:36:42;9.00;78.40
16627;DHT22;8427;52.204;7.202;2023-05-16T05:39:10;9.20;79.20
16627;DHT22;8427;52.204;7.202;2023-05-16T05:41:38;9.30;80.00
16627;DHT22;8427;52.204;7.202;2023-05-16T05:44:08;9.40;79.00
16627;DHT22;8427;52.204;7.202;2023-05-16T05:46:35;9.30;77.90
16627;DHT22;8427;52.204;7.202;2023-05-16T05:49:04;9.40;76.20
16627;DHT22;8427;52.204;7.202;2023-05-16T05:51:32;9.50;77.10
16627;DHT22;8427;52.204;7.202;2023-05-16T05:54:00;9.60;78.00
16627;DHT22;8427;52.204;7.202;2023-05-16T05:56:28;9.80;76.70
16627;DHT22;8427;52.204;7.202;2023-05-16T05:58:56;9.70;77.20
16627;DHT22;8427;52.204;7.202;2023-05-16T06:01:25;9.80;75.70
16627;DHT22;8427;52.204;7.202;2023-05-16T06:03:53;9.90;74.10
16627;DHT22;8427;52.204;7.202;2023-05-16T06:06:21;10.10;77.00
16627;DHT22;8427;52.204;7.202;2023-05-16T06:08:49;10.10;74.70
16627;DHT22;8427;52.204;7.202;2023-05-16T06:11:17;10.20;74.60
16627;DHT22;8427;52.204;7.202;2023-05-16T06:13:45;10.20;73.70
16627;DHT22;8427;52.204;7.202;2023-05-16T06:16:13;10.20;73.70
16627;DHT22;8427;52.204;7.202;2023-05-16T06:18:43;10.20;72.20
16627;DHT22;8427;52.204;7.202;2023-05-16T06:21:11;10.40;72.80
16627;DHT22;8427;52.204;7.202;2023-05-16T06:23:39;10.40;72.70
16627;DHT22;8427;52.204;7.202;2023-05-16T06:26:07;10.50;72.10
16627;DHT22;8427;52.204;7.202;2023-05-16T06:28:35;10.60;70.90
16627;DHT22;8427;52.204;7.202;2023-05-16T06:31:03;10.60;69.40
16627;DHT22;8427;52.204;7.202;2023-05-16T06:33:31;10.80;72.00
16627;DHT22;8427;52.204;7.202;2023-05-16T06:36:00;10.90;71.00
16627;DHT22;8427;52.204;7.202;2023-05-16T06:38:28;10.90;71.90
16627;DHT22;8427;52.204;7.202;2023-05-16T06:40:56;11.10;71.60
16627;DHT22;8427;52.204;7.202;2023-05-16T06:43:24;11.20;70.60
16627;DHT22;8427;52.204;7.202;2023-05-16T06:45:52;11.40;70.00
16627;DHT22;8427;52.204;7.202;2023-05-16T06:48:21;11.50;69.20
16627;DHT22;8427;52.204;7.202;2023-05-16T06:50:49;11.50;66.70
16627;DHT22;8427;52.204;7.202;2023-05-16T06:53:19;11.40;67.70
16627;DHT22;8427;52.204;7.202;2023-05-16T06:55:47;11.40;67.60
16627;DHT22;8427;52.204;7.202;2023-05-16T06:58:15;11.30;68.00
16627;DHT22;8427;52.204;7.202;2023-05-16T07:00:43;11.30;68.60
16627;DHT22;8427;52.204;7.202;2023-05-16T07:03:11;11.40;67.30
16627;DHT22;8427;52.204;7.202;2023-05-16T07:05:39;11.60;66.70
16627;DHT22;8427;52.204;7.202;2023-05-16T07:08:08;11.60;65.90
16627;DHT22;8427;52.204;7.202;2023-05-16T07:10:38;11.80;62.60
16627;DHT22;8427;52.204;7.202;2023-05-16T07:13:06;11.80;61.90
16627;DHT22;8427;52.204;7.202;2023-05-16T07:15:34;12.00;65.30
16627;DHT22;8427;52.204;7.202;2023-05-16T07:18:02;12.20;64.20
16627;DHT22;8427;52.204;7.202;2023-05-16T07:20:30;12.60;65.50
16627;DHT22;8427;52.204;7.202;2023-05-16T07:22:58;12.90;64.10
16627;DHT22;8427;52.204;7.202;2023-05-16T07:25:26;12.50;60.10
16627;DHT22;8427;52.204;7.202;2023-05-16T07:28:00;12.50;60.30
16627;DHT22;8427;52.204;7.202;2023-05-16T07:30:29;12.50;60.40
16627;DHT22;8427;52.204;7.202;2023-05-16T07:32:57;12.40;60.20
16627;DHT22;8427;52.204;7.202;2023-05-16T07:35:25;12.20;61.90
16627;DHT22;8427;52.204;7.202;2023-05-16T07:37:53;12.00;62.10
16627;DHT22;8427;52.204;7.202;2023-05-16T07:40:22;11.60;63.00
16627;DHT22;8427;52.204;7.202;2023-05-16T07:42:54;11.80;66.70
16627;DHT22;8427;52.204;7.202;2023-05-16T07:45:23;11.90;64.90
16627;DHT22;8427;52.204;7.202;2023-05-16T07:47:51;12.10;63.60
16627;DHT22;8427;52.204;7.202;2023-05-16T07:50:19;12.60;64.70
16627;DHT22;8427;52.204;7.202;2023-05-16T07:52:47;12.90;58.70
16627;DHT22;8427;52.204;7.202;2023-05-16T07:55:15;13.20;57.20
16627;DHT22;8427;52.204;7.202;2023-05-16T07:57:44;13.50;59.00
16627;DHT22;8427;52.204;7.202;2023-05-16T08:00:13;13.50;56.50
16627;DHT22;8427;52.204;7.202;2023-05-16T08:02:43;13.50;56.10
16627;DHT22;8427;52.204;7.202;2023-05-16T08:05:11;13.20;55.00
16627;DHT22;8427;52.204;7.202;2023-05-16T08:07:39;13.00;56.10
16627;DHT22;8427;52.204;7.202;2023-05-16T08:10:08;13.00;56.40
16627;DHT22;8427;52.204;7.202;2023-05-16T08:12:39;13.40;57.40
16627;DHT22;8427;52.204;7.202;2023-05-16T08:15:07;13.90;57.80
16627;DHT22;8427;52.204;7.202;2023-05-16T08:17:35;14.20;55.90
16627;DHT22;8427;52.204;7.202;2023-05-16T08:20:06;14.30;56.70
16627;DHT22;8427;52.204;7.202;2023-05-16T08:22:34;14.10;53.80
16627;DHT22;8427;52.204;7.202;2023-05-16T08:25:03;14.30;55.10
16627;DHT22;8427;52.204;7.202;2023-05-16T08:27:31;14.30;53.30
16627;DHT22;8427;52.204;7.202;2023-05-16T08:29:59;13.80;52.50
16627;DHT22;8427;52.204;7.202;2023-05-16T08:32:27;13.80;57.50
16627;DHT22;8427;52.204;7.202;2023-05-16T08:34:55;13.70;56.30
16627;DHT22;8427;52.204;7.202;2023-05-16T08:37:25;13.50;57.60
16627;DHT22;8427;52.204;7.202;2023-05-16T08:39:53;13.50;53.10
16627;DHT22;8427;52.204;7.202;2023-05-16T08:42:21;13.50;58.90
16627;DHT22;8427;52.204;7.202;2023-05-16T08:44:49;14.00;54.70
16627;DHT22;8427;52.204;7.202;2023-05-16T08:47:18;14.30;58.50
16627;DHT22;8427;52.204;7.202;2023-05-16T08:49:47;14.60;58.30
16627;DHT22;8427;52.204;7.202;2023-05-16T08:52:19;14.80;54.70
16627;DHT22;8427;52.204;7.202;2023-05-16T08:54:49;14.60;51.30
16627;DHT22;8427;52.204;7.202;2023-05-16T08:57:35;14.10;51.70
16627;DHT22;8427;52.204;7.202;2023-05-16T09:00:05;14.00;54.50
16627;DHT22;8427;52.204;7.202;2023-05-16T09:02:40;14.00;54.90
16627;DHT22;8427;52.204;7.202;2023-05-16T09:05:11;14.10;52.70
16627;DHT22;8427;52.204;7.202;2023-05-16T09:07:39;14.30;52.50
16627;DHT22;8427;52.204;7.202;2023-05-16T09:10:09;14.30;53.30
16627;DHT22;8427;52.204;7.202;2023-05-16T09:12:41;14.80;53.80
16627;DHT22;8427;52.204;7.202;2023-05-16T09:15:09;14.90;50.60
16627;DHT22;8427;52.204;7.202;2023-05-16T09:17:42;14.90;54.30
16627;DHT22;8427;52.204;7.202;2023-05-16T09:20:12;14.90;52.10
16627;DHT22;8427;52.204;7.202;2023-05-16T09:22:49;15.00;56.00
16627;DHT22;8427;52.204;7.202;2023-05-16T09:25:20;15.10;50.60
16627;DHT22;8427;52.204;7.202;2023-05-16T09:27:58;15.20;52.70
16627;DHT22;8427;52.204;7.202;2023-05-16T09:30:28;15.60;49.70
16627;DHT22;8427;52.204;7.202;2023-05-16T09:32:57;15.50;52.90
16627;DHT22;8427;52.204;7.202;2023-05-16T09:35:26;15.30;52.00
16627;DHT22;8427;52.204;7.202;2023-05-16T09:38:13;14.80;51.80
16627;DHT22;8427;52.204;7.202;2023-05-16T09:40:44;14.50;54.80
16627;DHT22;8427;52.204;7.202;2023-05-16T09:43:14;14.50;56.60
16627;DHT22;8427;52.204;7.202;2023-05-16T09:45:47;14.60;54.70
16627;DHT22;8427;52.204;7.202;2023-05-16T09:48:16;14.60;54.00
16627;DHT22;8427;52.204;7.202;2023-05-16T09:50:48;14.90;53.10
16627;DHT22;8427;52.204;7.202;2023-05-16T09:53:24;15.00;51.10
16627;DHT22;8427;52.204;7.202;2023-05-16T09:56:02;15.10;53.60
16627;DHT22;8427;52.204;7.202;2023-05-16T09:58:31;15.20;52.40
16627;DHT22;8427;52.204;7.202;2023-05-16T10:01:00;15.00;48.80
16627;DHT22;8427;52.204;7.202;2023-05-16T10:03:29;15.00;54.40
16627;DHT22;8427;52.204;7.202;2023-05-16T10:05:58;15.00;48.60
16627;DHT22;8427;52.204;7.202;2023-05-16T10:08:26;15.10;48.40
16627;DHT22;8427;52.204;7.202;2023-05-16T10:10:55;15.00;51.20
16627;DHT22;8427;52.204;7.202;2023-05-16T10:13:28;15.30;48.80
16627;DHT22;8427;52.204;7.202;2023-05-16T10:15:58;15.50;47.00
16627;DHT22;8427;52.204;7.202;2023-05-16T10:18:28;15.40;45.30
16627;DHT22;8427;52.204;7.202;2023-05-16T10:21:03;15.60;46.70
16627;DHT22;8427;52.204;7.202;2023-05-16T10:23:32;15.90;45.10
16627;DHT22;8427;52.204;7.202;2023-05-16T10:26:02;15.90;44.00
16627;DHT22;8427;52.204;7.202;2023-05-16T10:28:33;15.80;48.30
16627;DHT22;8427;52.204;7.202;2023-05-16T10:31:02;16.10;46.90
16627;DHT22;8427;52.204;7.202;2023-05-16T10:33:31;16.30;46.50
16627;DHT22;8427;52.204;7.202;2023-05-16T10:35:59;16.30;41.30
16627;DHT22;8427;52.204;7.202;2023-05-16T10:38:28;16.30;47.00
16627;DHT22;8427;52.204;7.202;2023-05-16T10:40:57;16.00;48.70
16627;DHT22;8427;52.204;7.202;2023-05-16T10:43:26;15.50;46.20
16627;DHT22;8427;52.204;7.202;2023-05-16T10:46:01;15.00;51.10
16627;DHT22;8427;52.204;7.202;2023-05-16T10:48:30;14.80;55.00
16627;DHT22;8427;52.204;7.202;2023-05-16T10:50:58;14.60;58.20
16627;DHT22;8427;52.204;7.202;2023-05-16T10:53:30;14.60;55.50
16627;DHT22;8427;52.204;7.202;2023-05-16T10:56:10;14.70;53.90
16627;DHT22;8427;52.204;7.202;2023-05-16T10:58:42;14.80;52.00
16627;DHT22;8427;52.204;7.202;2023-05-16T11:01:19;14.90;53.70
16627;DHT22;8427;52.204;7.202;2023-05-16T11:04:01;14.80;49.70
16627;DHT22;8427;52.204;7.202;2023-05-16T11:06:30;14.70;51.10
16627;DHT22;8427;52.204;7.202;2023-05-16T11:09:06;14.90;52.70
16627;DHT22;8427;52.204;7.202;2023-05-16T11:11:41;15.00;53.00
16627;DHT22;8427;52.204;7.202;2023-05-16T11:14:20;15.10;47.20
16627;DHT22;8427;52.204;7.202;2023-05-16T11:16:51;15.00;47.60
16627;DHT22;8427;52.204;7.202;2023-05-16T11:19:33;15.20;46.70
16627;DHT22;8427;52.204;7.202;2023-05-16T11:22:09;15.40;47.40
16627;DHT22;8427;52.204;7.202;2023-05-16T11:24:49;15.50;46.20
16627;DHT22;8427;52.204;7.202;2023-05-16T11:27:22;15.50;43.70
16627;DHT22;8427;52.204;7.202;2023-05-16T11:29:50;15.60;45.10
16627;DHT22;8427;52.204;7.202;2023-05-16T11:32:21;15.90;45.10
16627;DHT22;8427;52.204;7.202;2023-05-16T11:34:50;16.20;42.60
16627;DHT22;8427;52.204;7.202;2023-05-16T11:37:19;16.70;43.80
16627;DHT22;8427;52.204;7.202;2023-05-16T11:39:48;16.80;43.60
16627;DHT22;8427;52.204;7.202;2023-05-16T11:42:17;16.70;47.50
16627;DHT22;8427;52.204;7.202;2023-05-16T11:44:44;16.60;46.30
16627;DHT22;8427;52.204;7.202;2023-05-16T11:47:12;16.20;46.60
16627;DHT22;8427;52.204;7.202;2023-05-16T11:49:42;15.80;45.60
16627;DHT22;8427;52.204;7.202;2023-05-16T11:52:12;15.50;49.30
16627;DHT22;8427;52.204;7.202;2023-05-16T11:54:41;15.50;52.10
16627;DHT22;8427;52.204;7.202;2023-05-16T11:57:09;15.40;51.00
16627;DHT22;8427;52.204;7.202;2023-05-16T11:59:37;15.60;51.20
16627;DHT22;8427;52.204;7.202;2023-05-16T12:02:05;15.40;47.90
16627;DHT22;8427;52.204;7.202;2023-05-16T12:04:35;15.80;45.00
16627;DHT22;8427;52.204;7.202;2023-05-16T12:07:06;16.00;42.30
16627;DHT22;8427;52.204;7.202;2023-05-16T12:09:34;16.30;45.20
16627;DHT22;8427;52.204;7.202;2023-05-16T12:12:04;16.70;41.00
16627;DHT22;8427;52.204;7.202;2023-05-16T12:14:32;16.50;40.80
16627;DHT22;8427;52.204;7.202;2023-05-16T12:17:00;16.60;44.30
16627;DHT22;8427;52.204;7.202;2023-05-16T12:19:30;16.60;42.20
16627;DHT22;8427;52.204;7.202;2023-05-16T12:21:58;16.60;42.30
16627;DHT22;8427;52.204;7.202;2023-05-16T12:24:31;16.60;40.00
16627;DHT22;8427;52.204;7.202;2023-05-16T12:26:58;16.50;43.00
16627;DHT22;8427;52.204;7.202;2023-05-16T12:29:26;16.90;40.40
16627;DHT22;8427;52.204;7.202;2023-05-16T12:31:54;16.90;41.00
16627;DHT22;8427;52.204;7.202;2023-05-16T12:34:22;16.70;41.50
16627;DHT22;8427;52.204;7.202;2023-05-16T12:36:51;16.00;40.80
16627;DHT22;8427;52.204;7.202;2023-05-16T12:39:20;15.80;43.50
16627;DHT22;8427;52.204;7.202;2023-05-16T12:41:49;16.00;44.50
16627;DHT22;8427;52.204;7.202;2023-05-16T12:44:19;16.30;39.80
16627;DHT22;8427;52.204;7.202;2023-05-16T12:46:51;16.70;40.80
16627;DHT22;8427;52.204;7.202;2023-05-16T12:49:21;16.80;42.30
16627;DHT22;8427;52.204;7.202;2023-05-16T12:51:49;16.50;43.20
16627;DHT22;8427;52.204;7.202;2023-05-16T12:54:18;16.10;43.40
16627;DHT22;8427;52.204;7.202;2023-05-16T12:56:50;15.80;44.60
16627;DHT22;8427;52.204;7.202;2023-05-16T12:59:18;15.80;45.60
16627;DHT22;8427;52.204;7.202;2023-05-16T13:01:46;15.80;51.20
16627;DHT22;8427;52.204;7.202;2023-05-16T13:04:14;15.80;47.40
16627;DHT22;8427;52.204;7.202;2023-05-16T13:06:46;16.00;46.60
16627;DHT22;8427;52.204;7.202;2023-05-16T13:09:16;16.30;42.40
16627;DHT22;8427;52.204;7.202;2023-05-16T13:11:44;16.50;45.50
16627;DHT22;8427;52.204;7.202;2023-05-16T13:14:14;16.80;44.80
16627;DHT22;8427;52.204;7.202;2023-05-16T13:16:42;16.80;40.50
16627;DHT22;8427;52.204;7.202;2023-05-16T13:19:11;16.80;43.10
16627;DHT22;8427;52.204;7.202;2023-05-16T13:21:39;16.60;45.40
16627;DHT22;8427;52.204;7.202;2023-05-16T13:24:07;16.20;42.00
16627;DHT22;8427;52.204;7.202;2023-05-16T13:26:35;15.90;46.30
16627;DHT22;8427;52.204;7.202;2023-05-16T13:29:04;15.90;47.00
16627;DHT22;8427;52.204;7.202;2023-05-16T13:31:33;15.70;45.00
16627;DHT22;8427;52.204;7.202;2023-05-16T13:34:01;15.60;46.40
16627;DHT22;8427;52.204;7.202;2023-05-16T13:36:29;15.60;47.40
16627;DHT22;8427;52.204;7.202;2023-05-16T13:39:15;15.60;45.10
16627;DHT22;8427;52.204;7.202;2023-05-16T13:41:44;15.40;48.60
16627;DHT22;8427;52.204;7.202;2023-05-16T13:44:14;15.40;49.20
16627;DHT22;8427;52.204;7.202;2023-05-16T13:46:44;15.30;49.20
16627;DHT22;8427;52.204;7.202;2023-05-16T13:49:12;15.10;46.30
16627;DHT22;8427;52.204;7.202;2023-05-16T13:51:40;15.10;48.00
16627;DHT22;8427;52.204;7.202;2023-05-16T13:54:08;15.10;54.60
16627;DHT22;8427;52.204;7.202;2023-05-16T13:56:36;14.90;59.40
16627;DHT22;8427;52.204;7.202;2023-05-16T13:59:04;14.80;61.70
16627;DHT22;8427;52.204;7.202;2023-05-16T14:01:34;14.60;61.00
16627;DHT22;8427;52.204;7.202;2023-05-16T14:04:04;14.40;60.10
16627;DHT22;8427;52.204;7.202;2023-05-16T14:06:32;14.60;58.80
16627;DHT22;8427;52.204;7.202;2023-05-16T14:09:00;14.60;61.30
16627;DHT22;8427;52.204;7.202;2023-05-16T14:11:29;14.30;58.20
16627;DHT22;8427;52.204;7.202;2023-05-16T14:13:57;14.30;59.10
16627;DHT22;8427;52.204;7.202;2023-05-16T14:16:25;14.20;59.60
16627;DHT22;8427;52.204;7.202;2023-05-16T14:18:53;14.00;59.20
16627;DHT22;8427;52.204;7.202;2023-05-16T14:21:22;14.10;59.30
16627;DHT22;8427;52.204;7.202;2023-05-16T14:23:51;14.10;59.10
16627;DHT22;8427;52.204;7.202;2023-05-16T14:26:19;14.40;60.00
16627;DHT22;8427;52.204;7.202;2023-05-16T14:28:50;15.00;58.90
16627;DHT22;8427;52.204;7.202;2023-05-16T14:31:18;15.20;56.60
16627;DHT22;8427;52.204;7.202;2023-05-16T14:33:46;15.30;54.70
16627;DHT22;8427;52.204;7.202;2023-05-16T14:36:14;15.50;55.40
16627;DHT22;8427;52.204;7.202;2023-05-16T14:38:44;15.80;54.00
16627;DHT22;8427;52.204;7.202;2023-05-16T14:41:12;15.60;52.10
16627;DHT22;8427;52.204;7.202;2023-05-16T14:43:40;15.40;53.00
16627;DHT22;8427;52.204;7.202;2023-05-16T14:46:08;15.50;54.10
16627;DHT22;8427;52.204;7.202;2023-05-16T14:48:36;15.40;54.50
16627;DHT22;8427;52.204;7.202;2023-05-16T14:51:05;15.50;55.50
16627;DHT22;8427;52.204;7.202;2023-05-16T14:53:33;15.20;54.30
16627;DHT22;8427;52.204;7.202;2023-05-16T14:56:03;15.10;53.90
16627;DHT22;8427;52.204;7.202;2023-05-16T14:58:31;14.90;54.60
16627;DHT22;8427;52.204;7.202;2023-05-16T15:00:59;15.00;56.10
16627;DHT22;8427;52.204;7.202;2023-05-16T15:03:27;15.20;57.60
16627;DHT22;8427;52.204;7.202;2023-05-16T15:06:09;15.40;55.60
16627;DHT22;8427;52.204;7.202;2023-05-16T15:08:37;15.40;53.60
16627;DHT22;8427;52.204;7.202;2023-05-16T15:11:06;15.60;55.30
16627;DHT22;8427;52.204;7.202;2023-05-16T15:13:34;15.80;52.20
16627;DHT22;8427;52.204;7.202;2023-05-16T15:16:02;15.60;53.80
16627;DHT22;8427;52.204;7.202;2023-05-16T15:18:31;16.00;53.90
16627;DHT22;8427;52.204;7.202;2023-05-16T15:20:59;16.00;50.90
16627;DHT22;8427;52.204;7.202;2023-05-16T15:23:27;16.10;52.40
16627;DHT22;8427;52.204;7.202;2023-05-16T15:25:55;16.10;53.40
16627;DHT22;8427;52.204;7.202;2023-05-16T15:28:24;16.40;51.90
16627;DHT22;8427;52.204;7.202;2023-05-16T15:30:52;16.10;50.70
16627;DHT22;8427;52.204;7.202;2023-05-16T15:33:20;15.90;53.50
16627;DHT22;8427;52.204;7.202;2023-05-16T15:35:48;15.70;52.60
16627;DHT22;8427;52.204;7.202;2023-05-16T15:38:17;15.70;54.10
16627;DHT22;8427;52.204;7.202;2023-05-16T15:40:45;15.70;55.80
16627;DHT22;8427;52.204;7.202;2023-05-16T15:43:25;15.50;54.00
16627;DHT22;8427;52.204;7.202;2023-05-16T15:45:53;15.50;56.30
16627;DHT22;8427;52.204;7.202;2023-05-16T15:48:21;15.20;56.40
16627;DHT22;8427;52.204;7.202;2023-05-16T15:50:48;14.90;54.10
16627;DHT22;8427;52.204;7.202;2023-05-16T15:53:16;14.60;56.10
16627;DHT22;8427;52.204;7.202;2023-05-16T15:55:44;14.50;54.60
16627;DHT22;8427;52.204;7.202;2023-05-16T15:58:13;14.30;54.60
16627;DHT22;8427;52.204;7.202;2023-05-16T16:00:42;14.10;56.30
16627;DHT22;8427;52.204;7.202;2023-05-16T16:03:11;14.00;54.90
16627;DHT22;8427;52.204;7.202;2023-05-16T16:05:39;14.00;56.70
16627;DHT22;8427;52.204;7.202;2023-05-16T16:08:07;13.90;53.90
16627;DHT22;8427;52.204;7.202;2023-05-16T16:10:35;13.70;55.40
16627;DHT22;8427;52.204;7.202;2023-05-16T16:13:03;13.80;57.60